Weather History for Vinton, IA

Change the Weather History Date:

Thursday, June 27, 2013

  Actual Average Record
Temperature  
Mean Temperature 77 °F -  
Max Temperature 86 °F 84 °F 97 °F (1971)
Min Temperature 69 °F 60 °F 45 °F (1992)
Cooling Degree Days 12    
Growing Degree Days 27 (Base 50)    
Moisture  
Dew Point 64 °F    
Average Humidity 65    
Maximum Humidity 87    
Minimum Humidity 42    
Precipitation  
Precipitation 0.00 in - - ()
Sea Level Pressure  
Sea Level Pressure 29.86 in    
Wind  
Wind Speed 6 mph (WNW)    
Max Wind Speed 17 mph    
Max Gust Speed 24 mph    
Visibility 10 miles    
Events      
Averages and records for this station are not official NWS values.
T = Trace of Precipitation, MM = Missing Value Source: NWS Daily Summary

Daily Weather History Graph

Daily Weather History Graph

Search for Another Location

Airport:

Trip Planner

Search our weather history database for the weather conditions in past years. The results will help you decide how hot, cold, wet, or windy it might be!

Date:

Astronomy

Jun. 27, 2013 Rise Set
Actual Time 5:33 AM CDT 8:48 PM CDT
Civil Twilight 4:59 AM CDT 9:23 PM CDT
Nautical Twilight 4:14 AM CDT 10:07 PM CDT
Astronomical Twilight 3:20 AM CDT 11:01 PM CDT
Moon 11:39 PM CDT (6/27) 10:41 AM CDT (6/27)
Length of Visible Light 16h 23m
Length of Day
15h 14m
Waning Gibbous, 76% of the Moon is Illuminated
Jun 27
Waning Gibbous
Jun 29
Last Quarter
Jul 8
New
Jul 15
First Quarter
Jul 22
Full

Hourly Weather History & Observations

Time (CDT) Temp. Heat Index Dew Point Humidity Pressure Visibility Wind Dir Wind Speed Gust Speed Precip Events Conditions
12:15 AM 72.7 °F - 67.6 °F 84% 29.83 in 10.0 mi WNW 4.6 mph - N/A   Clear
12:35 AM 72.7 °F - 67.3 °F 83% 29.84 in 10.0 mi Calm Calm - N/A   Clear
1:15 AM 71.6 °F - 66.2 °F 83% 29.84 in 10.0 mi Calm Calm - N/A   Clear
1:35 AM 70.2 °F - 65.7 °F 86% 29.84 in 10.0 mi Calm Calm - N/A   Clear
1:55 AM 70.2 °F - 65.5 °F 85% 29.84 in 10.0 mi West 4.6 mph - N/A   Clear
2:15 AM 70.2 °F - 65.8 °F 86% 29.85 in 10.0 mi WNW 3.5 mph - N/A   Clear
2:35 AM 70.2 °F - 65.7 °F 86% 29.85 in 10.0 mi WNW 3.5 mph - N/A   Clear
2:55 AM 70.2 °F - 66.2 °F 87% 29.86 in 10.0 mi WNW 4.6 mph - N/A   Clear
3:15 AM 70.2 °F - 65.5 °F 85% 29.87 in 10.0 mi WNW 6.9 mph - N/A   Clear
3:35 AM 70.2 °F - 65.5 °F 85% 29.86 in 10.0 mi WNW 4.6 mph - N/A   Clear
3:55 AM 70.2 °F - 65.5 °F 85% 29.86 in 10.0 mi NW 4.6 mph - N/A   Clear
4:15 AM 70.2 °F - 65.5 °F 85% 29.86 in 10.0 mi WNW 4.6 mph - N/A   Clear
4:35 AM 70.2 °F - 65.5 °F 85% 29.86 in 10.0 mi WNW 5.8 mph - N/A   Clear
4:55 AM 70.2 °F - 65.7 °F 86% 29.87 in 10.0 mi NW 3.5 mph - N/A   Clear
5:15 AM 70.2 °F - 66.2 °F 87% 29.87 in 10.0 mi WNW 3.5 mph - N/A   Clear
5:35 AM 70.2 °F - 65.5 °F 85% 29.87 in 10.0 mi WNW 3.5 mph - N/A   Clear
5:55 AM 69.3 °F - 65.3 °F 87% 29.88 in 10.0 mi WNW 4.6 mph - N/A   Clear
6:15 AM 70.2 °F - 65.3 °F 85% 29.88 in 10.0 mi WNW 4.6 mph - N/A   Clear
6:35 AM 70.2 °F - 64.4 °F 82% 29.88 in 10.0 mi WNW 5.8 mph - N/A   Clear
6:55 AM 70.2 °F - 63.9 °F 80% 29.88 in 10.0 mi WNW 5.8 mph - N/A   Clear
7:15 AM 72.7 °F - 65.3 °F 78% 29.88 in 10.0 mi WNW 3.5 mph - N/A   Clear
7:35 AM 75.2 °F - 66.9 °F 75% 29.88 in 10.0 mi Calm Calm - N/A   Clear
7:55 AM 75.2 °F - 66.2 °F 73% 29.89 in 10.0 mi West 4.6 mph - N/A   Clear
8:15 AM 77.7 °F - 67.1 °F 70% 29.90 in 10.0 mi WNW 5.8 mph - N/A   Clear
8:35 AM 77.9 °F - 66.2 °F 67% 29.90 in 10.0 mi WNW 5.8 mph - N/A   Clear
8:55 AM 80.2 °F 82.7 °F 67.5 °F 65% 29.89 in 10.0 mi WSW 5.8 mph - N/A   Clear
9:15 AM 80.4 °F 82.7 °F 66.7 °F 63% 29.88 in 10.0 mi SW 3.5 mph - N/A   Clear
9:35 AM 80.8 °F 83.1 °F 66.6 °F 62% 29.88 in 10.0 mi Calm Calm - N/A   Clear
9:55 AM 82.8 °F 85.1 °F 66.4 °F 58% 29.87 in 10.0 mi SW 4.6 mph - N/A   Clear
10:15 AM 82.8 °F 84.7 °F 65.8 °F 56% 29.87 in 10.0 mi WSW 4.6 mph - N/A   Clear
10:35 AM 82.8 °F 84.3 °F 64.6 °F 54% 29.87 in 10.0 mi West 6.9 mph - N/A   Clear
10:55 AM 84.0 °F 86.5 °F 66.7 °F 56% 29.87 in 10.0 mi WSW 5.8 mph - N/A   Clear
11:15 AM 82.8 °F 84.5 °F 65.3 °F 55% 29.87 in 10.0 mi West 8.1 mph - N/A   Clear
11:35 AM 82.8 °F 84.3 °F 64.8 °F 54% 29.87 in 10.0 mi West 10.4 mph - N/A   Clear
11:55 AM 82.8 °F 84.0 °F 63.3 °F 52% 29.88 in 10.0 mi West 15.0 mph 18.4 mph N/A   Clear
12:15 PM 82.0 °F 83.6 °F 64.2 °F 55% 29.88 in 10.0 mi West 17.3 mph 23.0 mph N/A   Clear
12:35 PM 81.5 °F 83.1 °F 64.6 °F 56% 29.89 in 10.0 mi West 15.0 mph 21.9 mph N/A   Clear
12:55 PM 81.3 °F 83.0 °F 64.8 °F 57% 29.89 in 10.0 mi WNW 11.5 mph 24.2 mph N/A   Clear
1:15 PM 82.6 °F 84.1 °F 64.6 °F 54% 29.89 in 10.0 mi WNW 16.1 mph 21.9 mph N/A   Clear
1:35 PM 81.7 °F 83.0 °F 63.7 °F 54% 29.88 in 10.0 mi WNW 17.3 mph 23.0 mph N/A   Clear
1:55 PM 82.2 °F 83.8 °F 64.6 °F 55% 29.89 in 10.0 mi WNW 16.1 mph 24.2 mph N/A   Clear
2:15 PM 82.2 °F 83.8 °F 64.6 °F 55% 29.89 in 10.0 mi WNW 16.1 mph 23.0 mph N/A   Clear
2:35 PM 81.5 °F 83.3 °F 64.9 °F 57% 29.89 in 10.0 mi West 10.4 mph 17.3 mph N/A   Clear
2:55 PM 82.8 °F 84.5 °F 64.9 °F 55% 29.88 in 10.0 mi WNW 10.4 mph 19.6 mph N/A   Clear
3:15 PM 81.5 °F 83.7 °F 66.2 °F 60% 29.88 in 10.0 mi West 8.1 mph 17.3 mph N/A   Clear
3:35 PM 82.8 °F 85.3 °F 67.1 °F 59% 29.87 in 10.0 mi West 10.4 mph - N/A   Clear
3:55 PM 82.9 °F 85.0 °F 66.0 °F 56% 29.86 in 10.0 mi WNW 11.5 mph 20.7 mph N/A   Clear
4:15 PM 82.8 °F 85.1 °F 66.4 °F 58% 29.86 in 10.0 mi West 11.5 mph 18.4 mph N/A   Clear
4:35 PM 84.2 °F 87.1 °F 67.3 °F 57% 29.85 in 10.0 mi West 9.2 mph 18.4 mph N/A   Clear
4:55 PM 85.3 °F 86.4 °F 63.7 °F 48% 29.85 in 10.0 mi NW 16.1 mph 21.9 mph N/A   Clear
5:15 PM 85.3 °F 85.4 °F 61.2 °F 44% 29.84 in 10.0 mi NW 13.8 mph 21.9 mph N/A   Clear
5:35 PM 85.3 °F 85.0 °F 59.7 °F 42% 29.84 in 10.0 mi NW 11.5 mph 21.9 mph N/A   Clear
5:55 PM 85.3 °F 85.4 °F 61.0 °F 44% 29.84 in 10.0 mi NW 11.5 mph 20.7 mph N/A   Clear
6:15 PM 85.1 °F 85.7 °F 61.9 °F 46% 29.84 in 10.0 mi NW 15.0 mph 20.7 mph N/A   Clear
6:35 PM 84.7 °F 84.6 °F 60.3 °F 43% 29.83 in 10.0 mi NW 16.1 mph 23.0 mph N/A   Clear
6:55 PM 84.2 °F 83.8 °F 59.0 °F 42% 29.83 in 10.0 mi NW 10.4 mph 17.3 mph N/A   Clear
7:15 PM 83.3 °F 82.9 °F 58.3 °F 42% 29.83 in 10.0 mi NW 11.5 mph 19.6 mph N/A   Clear
7:35 PM 82.4 °F 82.6 °F 59.5 °F 46% 29.82 in 10.0 mi NW 8.1 mph - N/A   Clear
7:55 PM 80.8 °F 81.4 °F 59.7 °F 49% 29.83 in 10.0 mi NNW 8.1 mph - N/A   Clear
8:15 PM 80.2 °F 80.9 °F 59.4 °F 49% 29.83 in 10.0 mi NNW 5.8 mph - N/A   Clear
8:35 PM 77.9 °F - 58.3 °F 51% 29.82 in 10.0 mi NW 4.6 mph - N/A   Clear
8:55 PM 76.1 °F - 58.6 °F 55% 29.82 in 10.0 mi NW 4.6 mph - N/A   Clear
9:15 PM 75.2 °F - 58.3 °F 56% 29.83 in 10.0 mi WNW 3.5 mph - N/A   Clear
9:35 PM 75.2 °F - 61.3 °F 62% 29.83 in 10.0 mi WNW 3.5 mph - N/A   Clear
9:55 PM 75.2 °F - 62.4 °F 64% 29.84 in 10.0 mi West 4.6 mph - N/A   Clear
10:15 PM 73.6 °F - 61.9 °F 67% 29.84 in 10.0 mi WNW 4.6 mph - N/A   Clear
10:35 PM 72.7 °F - 61.9 °F 69% 29.85 in 10.0 mi West 4.6 mph - N/A   Clear
10:55 PM 70.3 °F - 60.8 °F 72% 29.86 in 10.0 mi Calm Calm - N/A   Clear
11:15 PM 70.2 °F - 60.4 °F 71% 29.86 in 10.0 mi WNW 4.6 mph - N/A   Clear
11:35 PM 70.2 °F - 61.2 °F 73% 29.86 in 10.0 mi WNW 5.8 mph - N/A   Clear
11:55 PM 70.2 °F - 60.6 °F 72% 29.86 in 10.0 mi WNW 4.6 mph - N/A   Clear